Time;durP1;ratioP1;P1;durP2;ratioP2;P2;SDS_P1;SDS_P2;PMS_P1;PMS_P2;Temp;Humidity;BMP_temperature;BMP_pressure;BME280_temperature;BME280_humidity;BME280_pressure;Samples;Min_cycle;Max_cycle;Signal;HPM_P1;HPM_P2
2020/12/05 00:00:27;;;;;;;4.43;3.5;;;7.8;99.9;;;;;;;;;
2020/12/05 00:01:02;;;;;;;4.43;3.5;;;7.8;99.9;;;;;;;;;
2020/12/05 00:02:02;;;;;;;3.47;3.1;;;7.8;99.9;;;;;;;;;
2020/12/05 00:02:41;;;;;;;4.1;3.7;;;7.8;99.9;;;;;;;;;
2020/12/05 00:03:02;;;;;;;4.1;3.7;;;7.8;99.9;;;;;;;;;
2020/12/05 00:03:16;;;;;;;4.1;3.7;;;7.8;99.9;;;;;;;;;
2020/12/05 00:04:02;;;;;;;5.13;4.1;;;7.8;99.9;;;;;;;;;
2020/12/05 00:04:13;;;;;;;5.13;4.1;;;7.8;99.9;;;;;;;;;
2020/12/05 00:04:54;;;;;;;4.27;3.63;;;7.8;99.9;;;;;;;;;
2020/12/05 00:05:03;;;;;;;4.27;3.63;;;7.8;99.9;;;;;;;;;
2020/12/05 00:05:14;;;;;;;4.27;3.63;;;7.8;99.9;;;;;;;;;
2020/12/05 00:05:29;;;;;;;4.43;3.97;;;7.7;99.9;;;;;;;;;
2020/12/05 00:06:02;;;;;;;4.43;3.97;;;7.7;99.9;;;;;;;;;
2020/12/05 00:06:16;;;;;;;4.43;3.97;;;7.7;99.9;;;;;;;;;
2020/12/05 00:06:26;;;;;;;4.43;3.97;;;7.7;99.9;;;;;;;;;
2020/12/05 00:07:02;;;;;;;3.97;3.6;;;7.7;99.9;;;;;;;;;
2020/12/05 00:07:07;;;;;;;3.97;3.6;;;7.7;99.9;;;;;;;;;
2020/12/05 00:07:19;;;;;;;3.97;3.6;;;7.7;99.9;;;;;;;;;
2020/12/05 00:07:27;;;;;;;3.97;3.6;;;7.7;99.9;;;;;;;;;
2020/12/05 00:07:43;;;;;;;5.07;4.03;;;7.8;99.9;;;;;;;;;
2020/12/05 00:08:02;;;;;;;5.07;4.03;;;7.8;99.9;;;;;;;;;
2020/12/05 00:08:13;;;;;;;5.07;4.03;;;7.8;99.9;;;;;;;;;
2020/12/05 00:08:29;;;;;;;6;5.27;;;7.7;99.9;;;;;;;;;
2020/12/05 00:08:39;;;;;;;6;5.27;;;7.7;99.9;;;;;;;;;
2020/12/05 00:09:02;;;;;;;6;5.27;;;7.7;99.9;;;;;;;;;
2020/12/05 00:09:15;;;;;;;6;5.27;;;7.7;99.9;;;;;;;;;
2020/12/05 00:09:30;;;;;;;4.87;4.37;;;7.6;99.9;;;;;;;;;
2020/12/05 00:09:40;;;;;;;4.87;4.37;;;7.6;99.9;;;;;;;;;
2020/12/05 00:09:56;;;;;;;4.87;4.37;;;7.6;99.9;;;;;;;;;
2020/12/05 00:10:01;;;;;;;4.87;4.37;;;7.6;99.9;;;;;;;;;
2020/12/05 00:10:16;;;;;;;4.87;4.37;;;7.6;99.9;;;;;;;;;
2020/12/05 00:10:29;;;;;;;4.87;4.37;;;7.6;99.9;;;;;;;;;
2020/12/05 00:10:42;;;;;;;5.17;4.23;;;7.6;99.9;;;;;;;;;
2020/12/05 00:10:52;;;;;;;5.17;4.23;;;7.6;99.9;;;;;;;;;
2020/12/05 00:11:02;;;;;;;5.17;4.23;;;7.6;99.9;;;;;;;;;
2020/12/05 00:11:13;;;;;;;5.17;4.23;;;7.6;99.9;;;;;;;;;
2020/12/05 00:11:28;;;;;;;5.17;4.23;;;7.6;99.9;;;;;;;;;
2020/12/05 00:11:43;;;;;;;5.2;3.8;;;7.6;99.9;;;;;;;;;
2020/12/05 00:11:53;;;;;;;5.2;3.8;;;7.6;99.9;;;;;;;;;
2020/12/05 00:12:02;;;;;;;5.2;3.8;;;7.6;99.9;;;;;;;;;
2020/12/05 00:12:09;;;;;;;5.2;3.8;;;7.6;99.9;;;;;;;;;
2020/12/05 00:12:14;;;;;;;5.2;3.8;;;7.6;99.9;;;;;;;;;
2020/12/05 00:12:29;;;;;;;5.2;3.8;;;7.6;99.9;;;;;;;;;
2020/12/05 00:12:40;;;;;;;4.4;4;;;7.6;99.9;;;;;;;;;
2020/12/05 00:12:55;;;;;;;4.4;4;;;7.6;99.9;;;;;;;;;
2020/12/05 00:13:01;;;;;;;4.4;4;;;7.6;99.9;;;;;;;;;
2020/12/05 00:13:05;;;;;;;4.4;4;;;7.6;99.9;;;;;;;;;
2020/12/05 00:13:15;;;;;;;4.4;4;;;7.6;99.9;;;;;;;;;
2020/12/05 00:13:26;;;;;;;4.4;4;;;7.6;99.9;;;;;;;;;
2020/12/05 00:13:41;;;;;;;4.7;4.07;;;7.6;99.9;;;;;;;;;
2020/12/05 00:13:56;;;;;;;4.7;4.07;;;7.6;99.9;;;;;;;;;
2020/12/05 00:14:01;;;;;;;4.7;4.07;;;7.6;99.9;;;;;;;;;
2020/12/05 00:14:07;;;;;;;4.7;4.07;;;7.6;99.9;;;;;;;;;
2020/12/05 00:14:12;;;;;;;4.7;4.07;;;7.6;99.9;;;;;;;;;
2020/12/05 00:14:27;;;;;;;4.7;4.07;;;7.6;99.9;;;;;;;;;
2020/12/05 00:14:42;;;;;;;4.4;4;;;7.5;99.9;;;;;;;;;
2020/12/05 00:14:53;;;;;;;4.4;4;;;7.5;99.9;;;;;;;;;
2020/12/05 00:15:02;;;;;;;4.4;4;;;7.5;99.9;;;;;;;;;
2020/12/05 00:15:08;;;;;;;4.4;4;;;7.5;99.9;;;;;;;;;
2020/12/05 00:15:13;;;;;;;4.4;4;;;7.5;99.9;;;;;;;;;
2020/12/05 00:15:28;;;;;;;4.4;4;;;7.5;99.9;;;;;;;;;
2020/12/05 00:15:39;;;;;;;4.87;3.87;;;7.5;99.9;;;;;;;;;
2020/12/05 00:15:54;;;;;;;4.87;3.87;;;7.5;99.9;;;;;;;;;
2020/12/05 00:16:02;;;;;;;4.87;3.87;;;7.5;99.9;;;;;;;;;
2020/12/05 00:16:09;;;;;;;4.87;3.87;;;7.5;99.9;;;;;;;;;
2020/12/05 00:16:15;;;;;;;4.87;3.87;;;7.5;99.9;;;;;;;;;
2020/12/05 00:16:25;;;;;;;4.87;3.87;;;7.5;99.9;;;;;;;;;
2020/12/05 00:16:40;;;;;;;4.57;3.97;;;7.6;99.9;;;;;;;;;
2020/12/05 00:16:56;;;;;;;4.57;3.97;;;7.6;99.9;;;;;;;;;
2020/12/05 00:17:01;;;;;;;4.57;3.97;;;7.6;99.9;;;;;;;;;
2020/12/05 00:17:07;;;;;;;4.57;3.97;;;7.6;99.9;;;;;;;;;
2020/12/05 00:17:16;;;;;;;4.57;3.97;;;7.6;99.9;;;;;;;;;
2020/12/05 00:17:26;;;;;;;4.57;3.97;;;7.6;99.9;;;;;;;;;
2020/12/05 00:17:43;;;;;;;4.83;4.2;;;7.5;99.9;;;;;;;;;
2020/12/05 00:17:52;;;;;;;4.83;4.2;;;7.5;99.9;;;;;;;;;
2020/12/05 00:18:02;;;;;;;4.83;4.2;;;7.5;99.9;;;;;;;;;
2020/12/05 00:18:07;;;;;;;4.83;4.2;;;7.5;99.9;;;;;;;;;
2020/12/05 00:18:12;;;;;;;4.83;4.2;;;7.5;99.9;;;;;;;;;
2020/12/05 00:18:28;;;;;;;4.83;4.2;;;7.5;99.9;;;;;;;;;
2020/12/05 00:18:38;;;;;;;4.1;3.5;;;7.6;99.9;;;;;;;;;
2020/12/05 00:18:54;;;;;;;4.1;3.5;;;7.6;99.9;;;;;;;;;
2020/12/05 00:19:02;;;;;;;4.1;3.5;;;7.6;99.9;;;;;;;;;
2020/12/05 00:19:11;;;;;;;4.1;3.5;;;7.6;99.9;;;;;;;;;
2020/12/05 00:19:14;;;;;;;4.1;3.5;;;7.6;99.9;;;;;;;;;
2020/12/05 00:19:29;;;;;;;4.1;3.5;;;7.6;99.9;;;;;;;;;
2020/12/05 00:19:42;;;;;;;4.93;4.43;;;7.6;99.9;;;;;;;;;
2020/12/05 00:19:55;;;;;;;4.93;4.43;;;7.6;99.9;;;;;;;;;
2020/12/05 00:20:02;;;;;;;4.93;4.43;;;7.6;99.9;;;;;;;;;
2020/12/05 00:20:05;;;;;;;4.93;4.43;;;7.6;99.9;;;;;;;;;
2020/12/05 00:20:15;;;;;;;4.93;4.43;;;7.6;99.9;;;;;;;;;
2020/12/05 00:20:25;;;;;;;4.93;4.43;;;7.6;99.9;;;;;;;;;
2020/12/05 00:20:41;;;;;;;4.53;4.07;;;7.6;99.9;;;;;;;;;
2020/12/05 00:20:51;;;;;;;4.53;4.07;;;7.6;99.9;;;;;;;;;
2020/12/05 00:21:02;;;;;;;4.53;4.07;;;7.6;99.9;;;;;;;;;
2020/12/05 00:21:06;;;;;;;4.53;4.07;;;7.6;99.9;;;;;;;;;
2020/12/05 00:21:17;;;;;;;4.53;4.07;;;7.6;99.9;;;;;;;;;
2020/12/05 00:21:27;;;;;;;4.53;4.07;;;7.6;99.9;;;;;;;;;
2020/12/05 00:21:42;;;;;;;4.63;4.07;;;7.6;99.9;;;;;;;;;
2020/12/05 00:21:53;;;;;;;4.63;4.07;;;7.6;99.9;;;;;;;;;
2020/12/05 00:22:01;;;;;;;4.63;4.07;;;7.6;99.9;;;;;;;;;
2020/12/05 00:22:08;;;;;;;4.63;4.07;;;7.6;99.9;;;;;;;;;
2020/12/05 00:22:13;;;;;;;4.63;4.07;;;7.6;99.9;;;;;;;;;
2020/12/05 00:22:30;;;;;;;4.63;4.07;;;7.6;99.9;;;;;;;;;
2020/12/05 00:22:39;;;;;;;5;4.17;;;7.6;99.9;;;;;;;;;
2020/12/05 00:22:54;;;;;;;5;4.17;;;7.6;99.9;;;;;;;;;
2020/12/05 00:23:02;;;;;;;5;4.17;;;7.6;99.9;;;;;;;;;
2020/12/05 00:23:04;;;;;;;5;4.17;;;7.6;99.9;;;;;;;;;
2020/12/05 00:23:15;;;;;;;5;4.17;;;7.6;99.9;;;;;;;;;
2020/12/05 00:23:30;;;;;;;5;4.17;;;7.6;99.9;;;;;;;;;
2020/12/05 00:23:40;;;;;;;3.9;3.6;;;7.5;99.9;;;;;;;;;
2020/12/05 00:23:55;;;;;;;3.9;3.6;;;7.5;99.9;;;;;;;;;
2020/12/05 00:24:02;;;;;;;3.9;3.6;;;7.5;99.9;;;;;;;;;
2020/12/05 00:24:06;;;;;;;3.9;3.6;;;7.5;99.9;;;;;;;;;
2020/12/05 00:24:16;;;;;;;3.9;3.6;;;7.5;99.9;;;;;;;;;
2020/12/05 00:24:26;;;;;;;3.9;3.6;;;7.5;99.9;;;;;;;;;
2020/12/05 00:24:41;;;;;;;6.07;4.27;;;7.5;99.9;;;;;;;;;
2020/12/05 00:24:52;;;;;;;6.07;4.27;;;7.5;99.9;;;;;;;;;
2020/12/05 00:25:02;;;;;;;6.07;4.27;;;7.5;99.9;;;;;;;;;
2020/12/05 00:25:07;;;;;;;6.07;4.27;;;7.5;99.9;;;;;;;;;
2020/12/05 00:25:12;;;;;;;6.07;4.27;;;7.5;99.9;;;;;;;;;
2020/12/05 00:25:28;;;;;;;6.07;4.27;;;7.5;99.9;;;;;;;;;
2020/12/05 00:25:43;;;;;;;5.77;4.43;;;7.5;99.9;;;;;;;;;
2020/12/05 00:25:53;;;;;;;5.77;4.43;;;7.5;99.9;;;;;;;;;
2020/12/05 00:26:02;;;;;;;5.77;4.43;;;7.5;99.9;;;;;;;;;
2020/12/05 00:26:09;;;;;;;5.77;4.43;;;7.5;99.9;;;;;;;;;
2020/12/05 00:26:14;;;;;;;5.77;4.43;;;7.5;99.9;;;;;;;;;
2020/12/05 00:26:29;;;;;;;5.77;4.43;;;7.5;99.9;;;;;;;;;
2020/12/05 00:26:39;;;;;;;5.7;4.7;;;7.5;99.9;;;;;;;;;
2020/12/05 00:26:55;;;;;;;5.7;4.7;;;7.5;99.9;;;;;;;;;
2020/12/05 00:27:02;;;;;;;5.7;4.7;;;7.5;99.9;;;;;;;;;
2020/12/05 00:27:05;;;;;;;5.7;4.7;;;7.5;99.9;;;;;;;;;
2020/12/05 00:27:19;;;;;;;5.7;4.7;;;7.5;99.9;;;;;;;;;
2020/12/05 00:27:25;;;;;;;5.7;4.7;;;7.5;99.9;;;;;;;;;
2020/12/05 00:27:41;;;;;;;6.07;4.7;;;7.6;99.9;;;;;;;;;
2020/12/05 00:27:56;;;;;;;6.07;4.7;;;7.6;99.9;;;;;;;;;
2020/12/05 00:28:04;;;;;;;6.07;4.7;;;7.6;99.9;;;;;;;;;
2020/12/05 00:28:06;;;;;;;6.07;4.7;;;7.6;99.9;;;;;;;;;
2020/12/05 00:28:16;;;;;;;6.07;4.7;;;7.6;99.9;;;;;;;;;
2020/12/05 00:28:27;;;;;;;6.07;4.7;;;7.6;99.9;;;;;;;;;
2020/12/05 00:28:42;;;;;;;5.17;4.1;;;7.7;99.9;;;;;;;;;
2020/12/05 00:28:52;;;;;;;5.17;4.1;;;7.7;99.9;;;;;;;;;
2020/12/05 00:29:01;;;;;;;5.17;4.1;;;7.7;99.9;;;;;;;;;
2020/12/05 00:29:08;;;;;;;5.17;4.1;;;7.7;99.9;;;;;;;;;
2020/12/05 00:29:13;;;;;;;5.17;4.1;;;7.7;99.9;;;;;;;;;
2020/12/05 00:29:33;;;;;;;5.17;4.1;;;7.7;99.9;;;;;;;;;
2020/12/05 00:29:38;;;;;;;4.37;3.97;;;7.9;99.9;;;;;;;;;
2020/12/05 00:29:54;;;;;;;4.37;3.97;;;7.9;99.9;;;;;;;;;
2020/12/05 00:30:02;;;;;;;4.37;3.97;;;7.9;99.9;;;;;;;;;
2020/12/05 00:30:09;;;;;;;4.37;3.97;;;7.9;99.9;;;;;;;;;
2020/12/05 00:30:14;;;;;;;4.37;3.97;;;7.9;99.9;;;;;;;;;
2020/12/05 00:30:30;;;;;;;4.37;3.97;;;7.9;99.9;;;;;;;;;
2020/12/05 00:30:40;;;;;;;4.4;4;;;8;99.9;;;;;;;;;
2020/12/05 00:30:55;;;;;;;4.4;4;;;8;99.9;;;;;;;;;
2020/12/05 00:31:02;;;;;;;4.4;4;;;8;99.9;;;;;;;;;
2020/12/05 00:31:05;;;;;;;4.4;4;;;8;99.9;;;;;;;;;
2020/12/05 00:31:16;;;;;;;4.4;4;;;8;99.9;;;;;;;;;
2020/12/05 00:31:26;;;;;;;4.4;4;;;8;99.9;;;;;;;;;
2020/12/05 00:31:46;;;;;;;4.93;4.43;;;7.9;99.9;;;;;;;;;
2020/12/05 00:31:52;;;;;;;4.93;4.43;;;7.9;99.9;;;;;;;;;
2020/12/05 00:32:06;;;;;;;4.93;4.43;;;7.9;99.9;;;;;;;;;
2020/12/05 00:32:07;;;;;;;4.93;4.43;;;7.9;99.9;;;;;;;;;
2020/12/05 00:32:12;;;;;;;4.93;4.43;;;7.9;99.9;;;;;;;;;
2020/12/05 00:32:28;;;;;;;4.93;4.43;;;7.9;99.9;;;;;;;;;
2020/12/05 00:32:48;;;;;;;4.73;4.23;;;7.7;99.9;;;;;;;;;
2020/12/05 00:32:53;;;;;;;4.73;4.23;;;7.7;99.9;;;;;;;;;
2020/12/05 00:33:02;;;;;;;4.73;4.23;;;7.7;99.9;;;;;;;;;
2020/12/05 00:33:08;;;;;;;4.73;4.23;;;7.7;99.9;;;;;;;;;
2020/12/05 00:33:13;;;;;;;4.73;4.23;;;7.7;99.9;;;;;;;;;
2020/12/05 00:33:29;;;;;;;4.73;4.23;;;7.7;99.9;;;;;;;;;
2020/12/05 00:33:39;;;;;;;4.87;4.37;;;7.6;99.9;;;;;;;;;
2020/12/05 00:34:00;;;;;;;4.87;4.37;;;7.6;99.9;;;;;;;;;
2020/12/05 00:34:02;;;;;;;4.87;4.37;;;7.6;99.9;;;;;;;;;
2020/12/05 00:34:05;;;;;;;4.87;4.37;;;7.6;99.9;;;;;;;;;
2020/12/05 00:34:20;;;;;;;4.87;4.37;;;7.6;99.9;;;;;;;;;
2020/12/05 00:34:25;;;;;;;4.87;4.37;;;7.6;99.9;;;;;;;;;
2020/12/05 00:34:42;;;;;;;5;4.4;;;7.5;99.9;;;;;;;;;
2020/12/05 00:35:01;;;;;;;5;4.4;;;7.5;99.9;;;;;;;;;
2020/12/05 00:35:02;;;;;;;5;4.4;;;7.5;99.9;;;;;;;;;
2020/12/05 00:35:06;;;;;;;5;4.4;;;7.5;99.9;;;;;;;;;
2020/12/05 00:35:17;;;;;;;5;4.4;;;7.5;99.9;;;;;;;;;
2020/12/05 00:35:27;;;;;;;5;4.4;;;7.5;99.9;;;;;;;;;
2020/12/05 00:35:42;;;;;;;4.7;4.3;;;7.5;99.9;;;;;;;;;
2020/12/05 00:35:52;;;;;;;4.7;4.3;;;7.5;99.9;;;;;;;;;
2020/12/05 00:36:02;;;;;;;4.7;4.3;;;7.5;99.9;;;;;;;;;
2020/12/05 00:36:13;;;;;;;4.7;4.3;;;7.5;99.9;;;;;;;;;
2020/12/05 00:36:13;;;;;;;4.7;4.3;;;7.5;99.9;;;;;;;;;
2020/12/05 00:36:33;;;;;;;4.7;4.3;;;7.5;99.9;;;;;;;;;
2020/12/05 00:36:38;;;;;;;4.7;4.3;;;7.4;99.9;;;;;;;;;
2020/12/05 00:36:56;;;;;;;4.7;4.3;;;7.4;99.9;;;;;;;;;
2020/12/05 00:37:01;;;;;;;4.7;4.3;;;7.4;99.9;;;;;;;;;
2020/12/05 00:37:14;;;;;;;4.7;4.3;;;7.4;99.9;;;;;;;;;
2020/12/05 00:37:14;;;;;;;4.7;4.3;;;7.4;99.9;;;;;;;;;
2020/12/05 00:37:29;;;;;;;4.7;4.3;;;7.4;99.9;;;;;;;;;
2020/12/05 00:37:40;;;;;;;8.03;4.8;;;7.3;99.9;;;;;;;;;
2020/12/05 00:37:55;;;;;;;8.03;4.8;;;7.3;99.9;;;;;;;;;
2020/12/05 00:38:02;;;;;;;8.03;4.8;;;7.3;99.9;;;;;;;;;
2020/12/05 00:38:05;;;;;;;8.03;4.8;;;7.3;99.9;;;;;;;;;
2020/12/05 00:38:16;;;;;;;8.03;4.8;;;7.3;99.9;;;;;;;;;
2020/12/05 00:38:26;;;;;;;8.03;4.8;;;7.3;99.9;;;;;;;;;
2020/12/05 00:38:47;;;;;;;5.13;4.63;;;7.3;99.9;;;;;;;;;
2020/12/05 00:38:53;;;;;;;5.13;4.63;;;7.3;99.9;;;;;;;;;
2020/12/05 00:39:01;;;;;;;5.13;4.63;;;7.3;99.9;;;;;;;;;
2020/12/05 00:39:07;;;;;;;5.13;4.63;;;7.3;99.9;;;;;;;;;
2020/12/05 00:39:12;;;;;;;5.13;4.63;;;7.3;99.9;;;;;;;;;
2020/12/05 00:39:27;;;;;;;5.13;4.63;;;7.3;99.9;;;;;;;;;
2020/12/05 00:39:43;;;;;;;4.87;4.37;;;7.2;99.9;;;;;;;;;
2020/12/05 00:39:53;;;;;;;4.87;4.37;;;7.2;99.9;;;;;;;;;
2020/12/05 00:40:02;;;;;;;4.87;4.37;;;7.2;99.9;;;;;;;;;
2020/12/05 00:40:08;;;;;;;4.87;4.37;;;7.2;99.9;;;;;;;;;
2020/12/05 00:40:13;;;;;;;4.87;4.37;;;7.2;99.9;;;;;;;;;
2020/12/05 00:40:29;;;;;;;4.87;4.37;;;7.2;99.9;;;;;;;;;
2020/12/05 00:40:39;;;;;;;4.87;4.47;;;7.2;99.9;;;;;;;;;
2020/12/05 00:40:59;;;;;;;4.87;4.47;;;7.2;99.9;;;;;;;;;
2020/12/05 00:41:04;;;;;;;4.87;4.47;;;7.2;99.9;;;;;;;;;
2020/12/05 00:41:04;;;;;;;4.87;4.47;;;7.2;99.9;;;;;;;;;
2020/12/05 00:41:15;;;;;;;4.87;4.47;;;7.2;99.9;;;;;;;;;
2020/12/05 00:41:25;;;;;;;4.87;4.47;;;7.2;99.9;;;;;;;;;
2020/12/05 00:41:40;;;;;;;5.43;4.6;;;7.2;99.9;;;;;;;;;
2020/12/05 00:41:56;;;;;;;5.43;4.6;;;7.2;99.9;;;;;;;;;
2020/12/05 00:42:02;;;;;;;5.43;4.6;;;7.2;99.9;;;;;;;;;
2020/12/05 00:42:06;;;;;;;5.43;4.6;;;7.2;99.9;;;;;;;;;
2020/12/05 00:42:16;;;;;;;5.43;4.6;;;7.2;99.9;;;;;;;;;
2020/12/05 00:42:26;;;;;;;5.43;4.6;;;7.2;99.9;;;;;;;;;
2020/12/05 00:42:42;;;;;;;6.13;4.43;;;7.3;99.9;;;;;;;;;
2020/12/05 00:42:52;;;;;;;6.13;4.43;;;7.3;99.9;;;;;;;;;
2020/12/05 00:43:02;;;;;;;6.13;4.43;;;7.3;99.9;;;;;;;;;
2020/12/05 00:43:12;;;;;;;6.13;4.43;;;7.3;99.9;;;;;;;;;
2020/12/05 00:43:18;;;;;;;6.13;4.43;;;7.3;99.9;;;;;;;;;
2020/12/05 00:43:28;;;;;;;6.13;4.43;;;7.3;99.9;;;;;;;;;
2020/12/05 00:43:38;;;;;;;6.13;4.43;;;7.3;99.9;;;;;;;;;
2020/12/05 00:43:54;;;;;;;5.1;4.13;;;7.3;99.9;;;;;;;;;
2020/12/05 00:44:02;;;;;;;5.1;4.13;;;7.3;99.9;;;;;;;;;
2020/12/05 00:44:09;;;;;;;5.1;4.13;;;7.3;99.9;;;;;;;;;
2020/12/05 00:44:14;;;;;;;5.1;4.13;;;7.3;99.9;;;;;;;;;
2020/12/05 00:44:29;;;;;;;5.1;4.13;;;7.3;99.9;;;;;;;;;
2020/12/05 00:44:40;;;;;;;6.67;4.7;;;7.2;99.9;;;;;;;;;
2020/12/05 00:44:55;;;;;;;6.67;4.7;;;7.2;99.9;;;;;;;;;
2020/12/05 00:45:02;;;;;;;6.67;4.7;;;7.2;99.9;;;;;;;;;
2020/12/05 00:45:05;;;;;;;6.67;4.7;;;7.2;99.9;;;;;;;;;
2020/12/05 00:45:15;;;;;;;6.67;4.7;;;7.2;99.9;;;;;;;;;
2020/12/05 00:45:31;;;;;;;6.67;4.7;;;7.2;99.9;;;;;;;;;
2020/12/05 00:45:41;;;;;;;4.63;4.17;;;7.2;99.9;;;;;;;;;
2020/12/05 00:45:51;;;;;;;4.63;4.17;;;7.2;99.9;;;;;;;;;
2020/12/05 00:46:02;;;;;;;4.63;4.17;;;7.2;99.9;;;;;;;;;
2020/12/05 00:46:07;;;;;;;4.63;4.17;;;7.2;99.9;;;;;;;;;
2020/12/05 00:46:19;;;;;;;4.63;4.17;;;7.2;99.9;;;;;;;;;
2020/12/05 00:46:27;;;;;;;4.63;4.17;;;7.2;99.9;;;;;;;;;
2020/12/05 00:46:43;;;;;;;5.23;4.6;;;7.1;99.9;;;;;;;;;
2020/12/05 00:46:53;;;;;;;5.23;4.6;;;7.1;99.9;;;;;;;;;
2020/12/05 00:47:02;;;;;;;5.23;4.6;;;7.1;99.9;;;;;;;;;
2020/12/05 00:47:08;;;;;;;5.23;4.6;;;7.1;99.9;;;;;;;;;
2020/12/05 00:47:13;;;;;;;5.23;4.6;;;7.1;99.9;;;;;;;;;
2020/12/05 00:47:29;;;;;;;5.23;4.6;;;7.1;99.9;;;;;;;;;
2020/12/05 00:47:44;;;;;;;5;4.5;;;7.1;99.9;;;;;;;;;
2020/12/05 00:47:54;;;;;;;5;4.5;;;7.1;99.9;;;;;;;;;
2020/12/05 00:48:02;;;;;;;5;4.5;;;7.1;99.9;;;;;;;;;
2020/12/05 00:48:04;;;;;;;5;4.5;;;7.1;99.9;;;;;;;;;
2020/12/05 00:48:15;;;;;;;5;4.5;;;7.1;99.9;;;;;;;;;
2020/12/05 00:48:30;;;;;;;5;4.5;;;7.1;99.9;;;;;;;;;
2020/12/05 00:48:43;;;;;;;5.37;4.87;;;7;99.9;;;;;;;;;
2020/12/05 00:48:56;;;;;;;5.37;4.87;;;7;99.9;;;;;;;;;
2020/12/05 00:49:01;;;;;;;5.37;4.87;;;7;99.9;;;;;;;;;
2020/12/05 00:49:06;;;;;;;5.37;4.87;;;7;99.9;;;;;;;;;
2020/12/05 00:49:16;;;;;;;5.37;4.87;;;7;99.9;;;;;;;;;
2020/12/05 00:49:26;;;;;;;5.37;4.87;;;7;99.9;;;;;;;;;
2020/12/05 00:49:42;;;;;;;6.17;5.13;;;7;99.9;;;;;;;;;
2020/12/05 00:49:57;;;;;;;6.17;5.13;;;7;99.9;;;;;;;;;
2020/12/05 00:50:02;;;;;;;6.17;5.13;;;7;99.9;;;;;;;;;
2020/12/05 00:50:07;;;;;;;6.17;5.13;;;7;99.9;;;;;;;;;
2020/12/05 00:50:12;;;;;;;6.17;5.13;;;7;99.9;;;;;;;;;
2020/12/05 00:50:28;;;;;;;6.17;5.13;;;7;99.9;;;;;;;;;
2020/12/05 00:50:43;;;;;;;4.9;4.5;;;6.9;99.9;;;;;;;;;
2020/12/05 00:50:53;;;;;;;4.9;4.5;;;6.9;99.9;;;;;;;;;
2020/12/05 00:51:02;;;;;;;4.9;4.5;;;6.9;99.9;;;;;;;;;
2020/12/05 00:51:09;;;;;;;4.9;4.5;;;6.9;99.9;;;;;;;;;
2020/12/05 00:51:14;;;;;;;4.9;4.5;;;6.9;99.9;;;;;;;;;
2020/12/05 00:51:29;;;;;;;4.9;4.5;;;6.9;99.9;;;;;;;;;
2020/12/05 00:51:40;;;;;;;4.9;4.5;;;6.9;99.9;;;;;;;;;
2020/12/05 00:51:55;;;;;;;5.97;5.27;;;7;99.9;;;;;;;;;
2020/12/05 00:52:02;;;;;;;5.97;5.27;;;7;99.9;;;;;;;;;
2020/12/05 00:52:10;;;;;;;5.97;5.27;;;7;99.9;;;;;;;;;
2020/12/05 00:52:15;;;;;;;5.97;5.27;;;7;99.9;;;;;;;;;
2020/12/05 00:52:26;;;;;;;5.97;5.27;;;7;99.9;;;;;;;;;
2020/12/05 00:52:41;;;;;;;5.97;5.27;;;7;99.9;;;;;;;;;
2020/12/05 00:52:56;;;;;;;6.77;4.93;;;7;99.9;;;;;;;;;
2020/12/05 00:53:02;;;;;;;6.77;4.93;;;7;99.9;;;;;;;;;
2020/12/05 00:53:06;;;;;;;6.77;4.93;;;7;99.9;;;;;;;;;
2020/12/05 00:53:19;;;;;;;6.77;4.93;;;7;99.9;;;;;;;;;
2020/12/05 00:53:27;;;;;;;6.77;4.93;;;7;99.9;;;;;;;;;
2020/12/05 00:53:42;;;;;;;5.37;4.53;;;7;99.9;;;;;;;;;
2020/12/05 00:53:53;;;;;;;5.37;4.53;;;7;99.9;;;;;;;;;
2020/12/05 00:54:01;;;;;;;5.37;4.53;;;7;99.9;;;;;;;;;
2020/12/05 00:54:08;;;;;;;5.37;4.53;;;7;99.9;;;;;;;;;
2020/12/05 00:54:13;;;;;;;5.37;4.53;;;7;99.9;;;;;;;;;
2020/12/05 00:54:28;;;;;;;5.37;4.53;;;7;99.9;;;;;;;;;
2020/12/05 00:54:39;;;;;;;5.37;4.53;;;7;99.9;;;;;;;;;
2020/12/05 00:54:54;;;;;;;5.83;5.2;;;7;99.9;;;;;;;;;
2020/12/05 00:55:02;;;;;;;5.83;5.2;;;7;99.9;;;;;;;;;
2020/12/05 00:55:09;;;;;;;5.83;5.2;;;7;99.9;;;;;;;;;
2020/12/05 00:55:14;;;;;;;5.83;5.2;;;7;99.9;;;;;;;;;
2020/12/05 00:55:30;;;;;;;5.83;5.2;;;7;99.9;;;;;;;;;
2020/12/05 00:55:40;;;;;;;5.83;5.2;;;7;99.9;;;;;;;;;
2020/12/05 00:55:55;;;;;;;6;4.6;;;7;99.9;;;;;;;;;
2020/12/05 00:56:02;;;;;;;6;4.6;;;7;99.9;;;;;;;;;
2020/12/05 00:56:06;;;;;;;6;4.6;;;7;99.9;;;;;;;;;
2020/12/05 00:56:16;;;;;;;6;4.6;;;7;99.9;;;;;;;;;
2020/12/05 00:56:26;;;;;;;6;4.6;;;7;99.9;;;;;;;;;
2020/12/05 00:56:42;;;;;;;6;4.6;;;7;99.9;;;;;;;;;
2020/12/05 00:56:52;;;;;;;6.1;4.73;;;7;99.9;;;;;;;;;
2020/12/05 00:57:02;;;;;;;6.1;4.73;;;7;99.9;;;;;;;;;
2020/12/05 00:57:07;;;;;;;6.1;4.73;;;7;99.9;;;;;;;;;
2020/12/05 00:57:12;;;;;;;6.1;4.73;;;7;99.9;;;;;;;;;
2020/12/05 00:57:28;;;;;;;6.1;4.73;;;7;99.9;;;;;;;;;
2020/12/05 00:57:43;;;;;;;6.37;5.3;;;7;99.9;;;;;;;;;
2020/12/05 00:57:53;;;;;;;6.37;5.3;;;7;99.9;;;;;;;;;
2020/12/05 00:58:02;;;;;;;6.37;5.3;;;7;99.9;;;;;;;;;
2020/12/05 00:58:08;;;;;;;6.37;5.3;;;7;99.9;;;;;;;;;
2020/12/05 00:58:14;;;;;;;6.37;5.3;;;7;99.9;;;;;;;;;
2020/12/05 00:58:34;;;;;;;6.37;5.3;;;7;99.9;;;;;;;;;
2020/12/05 00:58:39;;;;;;;6.37;5.3;;;7;99.9;;;;;;;;;
2020/12/05 00:58:55;;;;;;;5.03;4.43;;;7;99.9;;;;;;;;;
2020/12/05 00:59:01;;;;;;;5.03;4.43;;;7;99.9;;;;;;;;;
2020/12/05 00:59:05;;;;;;;5.03;4.43;;;7;99.9;;;;;;;;;
2020/12/05 00:59:15;;;;;;;5.03;4.43;;;7;99.9;;;;;;;;;
2020/12/05 00:59:25;;;;;;;5.03;4.43;;;7;99.9;;;;;;;;;
2020/12/05 00:59:41;;;;;;;5.03;4.43;;;7;99.9;;;;;;;;;
2020/12/05 00:59:56;;;;;;;5.77;5;;;7.1;99.9;;;;;;;;;
2020/12/05 01:00:02;;;;;;;5.77;5;;;7.1;99.9;;;;;;;;;
2020/12/05 01:00:06;;;;;;;5.77;5;;;7.1;99.9;;;;;;;;;
2020/12/05 01:00:18;;;;;;;5.77;5;;;7.1;99.9;;;;;;;;;
2020/12/05 01:00:27;;;;;;;5.77;5;;;7.1;99.9;;;;;;;;;
2020/12/05 01:00:47;;;;;;;5.83;5.23;;;7.1;99.9;;;;;;;;;
2020/12/05 01:00:52;;;;;;;5.83;5.23;;;7.1;99.9;;;;;;;;;
2020/12/05 01:01:02;;;;;;;5.83;5.23;;;7.1;99.9;;;;;;;;;
2020/12/05 01:01:08;;;;;;;5.83;5.23;;;7.1;99.9;;;;;;;;;
2020/12/05 01:01:13;;;;;;;5.83;5.23;;;7.1;99.9;;;;;;;;;
2020/12/05 01:01:28;;;;;;;5.83;5.23;;;7.1;99.9;;;;;;;;;
2020/12/05 01:01:39;;;;;;;5.83;5.23;;;7.1;99.9;;;;;;;;;
2020/12/05 01:01:54;;;;;;;6.07;4.93;;;7.2;99.9;;;;;;;;;
2020/12/05 01:02:02;;;;;;;6.07;4.93;;;7.2;99.9;;;;;;;;;
2020/12/05 01:02:09;;;;;;;6.07;4.93;;;7.2;99.9;;;;;;;;;
2020/12/05 01:02:14;;;;;;;6.07;4.93;;;7.2;99.9;;;;;;;;;
2020/12/05 01:02:30;;;;;;;6.07;4.93;;;7.2;99.9;;;;;;;;;
2020/12/05 01:02:40;;;;;;;6.07;4.93;;;7.2;99.9;;;;;;;;;
2020/12/05 01:03:00;;;;;;;6.37;5.07;;;7.2;99.9;;;;;;;;;
2020/12/05 01:03:02;;;;;;;6.37;5.07;;;7.2;99.9;;;;;;;;;
2020/12/05 01:03:06;;;;;;;6.37;5.07;;;7.2;99.9;;;;;;;;;
2020/12/05 01:03:16;;;;;;;6.37;5.07;;;7.2;99.9;;;;;;;;;
2020/12/05 01:03:26;;;;;;;6.37;5.07;;;7.2;99.9;;;;;;;;;
2020/12/05 01:03:41;;;;;;;6.37;5.07;;;7.2;99.9;;;;;;;;;
2020/12/05 01:03:52;;;;;;;5.23;4.73;;;7.2;99.9;;;;;;;;;
2020/12/05 01:04:01;;;;;;;5.23;4.73;;;7.2;99.9;;;;;;;;;
2020/12/05 01:04:07;;;;;;;5.23;4.73;;;7.2;99.9;;;;;;;;;
2020/12/05 01:04:12;;;;;;;5.23;4.73;;;7.2;99.9;;;;;;;;;
2020/12/05 01:04:27;;;;;;;5.23;4.73;;;7.2;99.9;;;;;;;;;
2020/12/05 01:04:43;;;;;;;5.23;4.73;;;7.2;99.9;;;;;;;;;
2020/12/05 01:04:53;;;;;;;6.73;4.93;;;7.3;99.9;;;;;;;;;
2020/12/05 01:05:02;;;;;;;6.73;4.93;;;7.3;99.9;;;;;;;;;
2020/12/05 01:05:14;;;;;;;6.73;4.93;;;7.3;99.9;;;;;;;;;
2020/12/05 01:05:14;;;;;;;6.73;4.93;;;7.3;99.9;;;;;;;;;
2020/12/05 01:05:29;;;;;;;6.73;4.93;;;7.3;99.9;;;;;;;;;
2020/12/05 01:05:39;;;;;;;6.73;4.93;;;7.3;99.9;;;;;;;;;
2020/12/05 01:05:54;;;;;;;5.4;4.87;;;7.4;99.9;;;;;;;;;
2020/12/05 01:06:02;;;;;;;5.4;4.87;;;7.4;99.9;;;;;;;;;
2020/12/05 01:06:05;;;;;;;5.4;4.87;;;7.4;99.9;;;;;;;;;
2020/12/05 01:06:15;;;;;;;5.4;4.87;;;7.4;99.9;;;;;;;;;
2020/12/05 01:06:25;;;;;;;5.4;4.87;;;7.4;99.9;;;;;;;;;
2020/12/05 01:06:41;;;;;;;5.4;4.87;;;7.4;99.9;;;;;;;;;
2020/12/05 01:06:56;;;;;;;6;4.83;;;7.4;99.9;;;;;;;;;
2020/12/05 01:07:02;;;;;;;6;4.83;;;7.4;99.9;;;;;;;;;
2020/12/05 01:07:06;;;;;;;6;4.83;;;7.4;99.9;;;;;;;;;
2020/12/05 01:07:17;;;;;;;6;4.83;;;7.4;99.9;;;;;;;;;
2020/12/05 01:07:27;;;;;;;6;4.83;;;7.4;99.9;;;;;;;;;
2020/12/05 01:07:42;;;;;;;6;4.83;;;7.4;99.9;;;;;;;;;
2020/12/05 01:07:52;;;;;;;5.37;4.87;;;7.4;99.9;;;;;;;;;
2020/12/05 01:08:02;;;;;;;5.37;4.87;;;7.4;99.9;;;;;;;;;
2020/12/05 01:08:08;;;;;;;5.37;4.87;;;7.4;99.9;;;;;;;;;
2020/12/05 01:08:13;;;;;;;5.37;4.87;;;7.4;99.9;;;;;;;;;
2020/12/05 01:08:28;;;;;;;5.37;4.87;;;7.4;99.9;;;;;;;;;
2020/12/05 01:08:40;;;;;;;5.37;4.87;;;7.4;99.9;;;;;;;;;
2020/12/05 01:08:54;;;;;;;5.8;5.23;;;7.5;99.9;;;;;;;;;
2020/12/05 01:09:01;;;;;;;5.8;5.23;;;7.5;99.9;;;;;;;;;
2020/12/05 01:09:09;;;;;;;5.8;5.23;;;7.5;99.9;;;;;;;;;
2020/12/05 01:09:14;;;;;;;5.8;5.23;;;7.5;99.9;;;;;;;;;
2020/12/05 01:09:35;;;;;;;5.8;5.23;;;7.5;99.9;;;;;;;;;
2020/12/05 01:09:40;;;;;;;5.8;5.23;;;7.5;99.9;;;;;;;;;
2020/12/05 01:09:55;;;;;;;6.37;5.23;;;7.5;99.9;;;;;;;;;
2020/12/05 01:10:02;;;;;;;6.37;5.23;;;7.5;99.9;;;;;;;;;
2020/12/05 01:10:05;;;;;;;6.37;5.23;;;7.5;99.9;;;;;;;;;
2020/12/05 01:10:16;;;;;;;6.37;5.23;;;7.5;99.9;;;;;;;;;
2020/12/05 01:10:26;;;;;;;6.37;5.23;;;7.5;99.9;;;;;;;;;
2020/12/05 01:10:41;;;;;;;6.37;5.23;;;7.5;99.9;;;;;;;;;
2020/12/05 01:10:51;;;;;;;6;5.03;;;7.6;99.9;;;;;;;;;
2020/12/05 01:11:01;;;;;;;6;5.03;;;7.6;99.9;;;;;;;;;
2020/12/05 01:11:07;;;;;;;6;5.03;;;7.6;99.9;;;;;;;;;
2020/12/05 01:11:12;;;;;;;6;5.03;;;7.6;99.9;;;;;;;;;
2020/12/05 01:11:27;;;;;;;6;5.03;;;7.6;99.9;;;;;;;;;
2020/12/05 01:11:48;;;;;;;4.83;4.43;;;7.6;99.9;;;;;;;;;
2020/12/05 01:11:53;;;;;;;4.83;4.43;;;7.6;99.9;;;;;;;;;
2020/12/05 01:12:02;;;;;;;4.83;4.43;;;7.6;99.9;;;;;;;;;
2020/12/05 01:12:08;;;;;;;4.83;4.43;;;7.6;99.9;;;;;;;;;
2020/12/05 01:12:13;;;;;;;4.83;4.43;;;7.6;99.9;;;;;;;;;
2020/12/05 01:12:29;;;;;;;4.83;4.43;;;7.6;99.9;;;;;;;;;
2020/12/05 01:12:39;;;;;;;4.83;4.43;;;7.6;99.9;;;;;;;;;
2020/12/05 01:12:54;;;;;;;5.97;5;;;7.7;99.9;;;;;;;;;
2020/12/05 01:13:02;;;;;;;5.97;5;;;7.7;99.9;;;;;;;;;
2020/12/05 01:13:04;;;;;;;5.97;5;;;7.7;99.9;;;;;;;;;
2020/12/05 01:13:15;;;;;;;5.97;5;;;7.7;99.9;;;;;;;;;
2020/12/05 01:13:28;;;;;;;5.97;5;;;7.7;99.9;;;;;;;;;
2020/12/05 01:13:40;;;;;;;5.97;5;;;7.7;99.9;;;;;;;;;
2020/12/05 01:14:01;;;;;;;5.27;4.5;;;7.8;99.9;;;;;;;;;
2020/12/05 01:14:02;;;;;;;5.27;4.5;;;7.8;99.9;;;;;;;;;
2020/12/05 01:14:06;;;;;;;5.27;4.5;;;7.8;99.9;;;;;;;;;
2020/12/05 01:14:16;;;;;;;5.27;4.5;;;7.8;99.9;;;;;;;;;
2020/12/05 01:14:26;;;;;;;5.27;4.5;;;7.8;99.9;;;;;;;;;
2020/12/05 01:14:42;;;;;;;5.27;4.5;;;7.8;99.9;;;;;;;;;
2020/12/05 01:14:52;;;;;;;5.53;4.9;;;7.9;99.9;;;;;;;;;
2020/12/05 01:15:02;;;;;;;5.53;4.9;;;7.9;99.9;;;;;;;;;
2020/12/05 01:15:13;;;;;;;5.53;4.9;;;7.9;99.9;;;;;;;;;
2020/12/05 01:15:13;;;;;;;5.53;4.9;;;7.9;99.9;;;;;;;;;
2020/12/05 01:15:28;;;;;;;5.53;4.9;;;7.9;99.9;;;;;;;;;
2020/12/05 01:15:38;;;;;;;5.53;4.9;;;7.9;99.9;;;;;;;;;
2020/12/05 01:15:53;;;;;;;4.7;4.27;;;7.9;99.9;;;;;;;;;
2020/12/05 01:16:02;;;;;;;4.7;4.27;;;7.9;99.9;;;;;;;;;
2020/12/05 01:16:14;;;;;;;4.7;4.27;;;7.9;99.9;;;;;;;;;
2020/12/05 01:16:14;;;;;;;4.7;4.27;;;7.9;99.9;;;;;;;;;
2020/12/05 01:16:31;;;;;;;4.7;4.27;;;7.9;99.9;;;;;;;;;
2020/12/05 01:16:40;;;;;;;4.7;4.27;;;7.9;99.9;;;;;;;;;
2020/12/05 01:16:55;;;;;;;4.93;4.43;;;7.9;99.9;;;;;;;;;
2020/12/05 01:17:02;;;;;;;4.93;4.43;;;7.9;99.9;;;;;;;;;
2020/12/05 01:17:05;;;;;;;4.93;4.43;;;7.9;99.9;;;;;;;;;
2020/12/05 01:17:16;;;;;;;4.93;4.43;;;7.9;99.9;;;;;;;;;
2020/12/05 01:17:26;;;;;;;4.93;4.43;;;7.9;99.9;;;;;;;;;
2020/12/05 01:17:41;;;;;;;4.93;4.43;;;7.9;99.9;;;;;;;;;
2020/12/05 01:17:51;;;;;;;4.67;4.27;;;7.9;99.9;;;;;;;;;